createdAt,value
2022-09-21T00:12:45.047Z,2774.51033
2022-09-21T00:27:47.318Z,2852.82311
2022-09-21T00:42:49.561Z,3056.15599
2022-09-21T00:57:51.822Z,2899.59069
2022-09-21T01:12:54.467Z,2763.6724
2022-09-21T01:27:56.701Z,2425.02193
2022-09-21T01:42:58.953Z,2171.91148
2022-09-21T01:58:01.154Z,1892.97709
2022-09-21T02:13:03.356Z,1678.52956
2022-09-21T02:28:05.594Z,1534.70765
2022-09-21T02:43:07.854Z,1451.28257
2022-09-21T02:58:10.239Z,1409.36306
2022-09-21T03:13:12.776Z,1272.48252
2022-09-21T03:28:15.039Z,1237.97076
2022-09-21T03:43:17.423Z,1175.24967
2022-09-21T03:58:19.611Z,1132.0005
2022-09-21T04:13:21.834Z,1107.19925
2022-09-21T04:28:24.250Z,1137.46031
2022-09-21T04:43:26.542Z,1050.48305
2022-09-21T04:58:28.775Z,1012.16073
2022-09-21T05:13:30.967Z,1059.13224
2022-09-21T05:28:36.597Z,1079.32926
2022-09-21T05:43:42.378Z,1074.41204
2022-09-21T05:58:44.853Z,1063.11094
2022-09-21T06:13:47.307Z,1063.11094
2022-09-21T06:28:49.932Z,1114.17373
2022-09-21T06:43:52.225Z,1158.88666
2022-09-21T06:58:54.504Z,1184.10092
2022-09-21T07:13:56.891Z,1150.40701
2022-09-21T07:28:59.091Z,1272.48252
2022-09-21T07:44:01.432Z,1308.97368
2022-09-21T07:59:03.786Z,1348.90423
2022-09-21T08:14:06.388Z,1354.0675
2022-09-21T08:29:08.687Z,1345.05754
2022-09-21T08:44:10.918Z,1321.19565
2022-09-21T08:59:13.202Z,1212.51122
2022-09-21T09:14:15.428Z,1127.49054
2022-09-21T09:29:17.675Z,1071.15872
2022-09-21T09:44:19.975Z,1020.92402
2022-09-21T09:59:22.353Z,988.12899
2022-09-21T10:14:24.538Z,977.88578
2022-09-21T10:29:26.763Z,990.89686
2022-09-21T10:44:29.015Z,1009.99336
2022-09-21T10:59:31.163Z,1051.2635
2022-09-21T11:14:33.518Z,1080.97835
2022-09-21T11:29:35.866Z,1076.86504
2022-09-21T11:44:38.025Z,1103.74465
2022-09-21T11:59:40.295Z,1160.78803
2022-09-21T12:14:42.710Z,1193.08651
2022-09-21T12:29:44.911Z,1179.16717
2022-09-21T12:44:47.126Z,1246.69654
2022-09-21T12:59:49.530Z,1253.32203
2022-09-21T13:14:51.731Z,1187.08104
2022-09-21T13:29:53.941Z,1177.20516
2022-09-21T13:44:56.284Z,1140.21001
2022-09-21T13:59:58.512Z,1150.40701
2022-09-21T14:15:00.715Z,1103.74465
2022-09-21T14:30:06.456Z,1099.4566
2022-09-21T14:45:09.556Z,1237.97076
2022-09-21T15:00:11.896Z,1233.65351
2022-09-21T15:15:14.162Z,1293.41916
2022-09-21T15:30:16.545Z,1543.91757
2022-09-21T15:45:18.900Z,1705.84739
2022-09-21T16:00:21.158Z,1683.52221
2022-09-21T16:15:23.345Z,1869.22111
2022-09-21T16:30:25.629Z,2079.35392
2022-09-21T16:45:27.923Z,2116.67964
2022-09-21T17:00:30.250Z,2178.59943
2022-09-21T17:15:32.690Z,2242.47277
2022-09-21T17:30:34.810Z,2312.09201
2022-09-21T17:45:37.037Z,2253.18522
2022-09-21T18:00:39.252Z,2160.30585
2022-09-21T18:15:41.556Z,2147.19322
2022-09-21T18:30:43.840Z,2212.66665
2022-09-21T18:45:46.020Z,2217.86884
2022-09-21T19:00:48.281Z,2398.3056
2022-09-21T19:16:00.215Z,2441.76065
2022-09-21T19:31:03.582Z,2500.00051
2022-09-21T19:46:05.915Z,2484.63616
2022-09-21T20:01:08.324Z,2478.10909
2022-09-21T20:16:13.034Z,2412.61773
2022-09-21T20:31:18.226Z,2368.20135
2022-09-21T20:46:20.578Z,2486.81949
2022-09-21T21:01:22.928Z,2354.40983
2022-09-21T21:16:25.302Z,2482.45665
2022-09-21T21:31:27.614Z,2489.00667
2022-09-21T21:46:30.009Z,2558.77086
2022-09-21T22:01:32.342Z,2526.78623
2022-09-21T22:16:34.750Z,2632.55866
2022-09-21T22:31:37.134Z,2647.33448
2022-09-21T22:46:39.492Z,2649.81325
2022-09-21T23:16:42.905Z,2801.98072
2022-09-21T23:31:46.127Z,2672.33291
2022-09-21T23:46:48.834Z,2598.71493
